Irish Sea — WDB5555 — position and weather

sailwx.info

Track history (hours):
 
Tides and Currents Weather Stations Pressure Air Temp Water Temp Dewpoint Dewpoint Depression Visibility Wind Speed Wind Dir Waves Ship Positions

Irish Sea

Owner: Kirby Offshore Marine, LLC, Staten Island, NY. More information available from US FCC via Universal Licensing System and Coast Guard Vessel Documentation Center.

Last reported at 2015-Sep-04 07:28 UTC. Time now 2015-Sep-04 07:51 UTC.
Position N 40°40' W 072°57'.

Length 156 m; draft 6.8 m.

Type: Ship (hazmat cat B). MMSI: 366910920.

Date/timePositionNaut miles runAvg speedWind from/ knotsBaromVisibWave heightAir tempDewpointWater temp
2015-Sep-04 07:28N 40°40' W 072°57'7 7.8
2015-Sep-04 06:33N 40°37' W 073°06'8 7.6
2015-Sep-04 05:33N 40°34' W 073°15'8 7.7
2015-Sep-04 04:33N 40°33' W 073°25'8 7.8
2015-Sep-04 03:33N 40°32' W 073°35'8 7.6
2015-Sep-04 02:33N 40°30' W 073°45'8 7.6
2015-Sep-04 01:33N 40°27' W 073°54'6 5.8
2015-Sep-04 00:33N 40°29' W 074°02'12 0.4
2015-Sep-02 15:33N 40°37' W 074°12'2 1.9
2015-Sep-02 14:25N 40°38' W 074°10'0 0.0
2015-Sep-02 13:31N 40°38' W 074°10'2 2.4
2015-Sep-02 12:30N 40°37' W 074°12'1 0.5
2015-Sep-02 11:29N 40°36' W 074°12'0 0.0
2015-Sep-02 04:29N 40°36' W 074°12'0 0.0
2015-Sep-02 03:27N 40°36' W 074°12'0 0.0
2015-Sep-02 02:33N 40°36' W 074°12'4 4.3
2015-Sep-02 01:33N 40°39' W 074°07'8 7.6
2015-Sep-02 00:33N 40°42' W 073°59'7 5.1
2015-Sep-01 23:10N 40°48' W 073°53'25 8.1
2015-Sep-01 20:06N 41°00' W 073°24'16 8.9
2015-Sep-01 18:17N 41°01' W 073°03'7 9.2
2015-Sep-01 17:33N 41°01' W 072°54'9 9.5
2015-Sep-01 16:34N 41°01' W 072°42'2 2.2
2015-Sep-01 15:34N 41°00' W 072°39'0 0.0
2015-Sep-01 14:31N 41°00' W 072°39'0 0.0
2015-Sep-01 13:31N 41°00' W 072°39'0 0.0
2015-Sep-01 12:31N 41°00' W 072°39'0 0.0
2015-Sep-01 11:31N 41°00' W 072°39'0 0.0
2015-Sep-01 10:34N 41°00' W 072°39'0 0.0
2015-Sep-01 09:33N 41°00' W 072°39'0 0.0
2015-Sep-01 08:33N 41°00' W 072°39'0 0.0
2015-Sep-01 07:33N 41°00' W 072°39'0 0.0
2015-Sep-01 06:33N 41°00' W 072°39'0 0.0
2015-Sep-01 05:33N 41°00' W 072°39'0 0.0
2015-Sep-01 04:33N 41°00' W 072°39'0 0.0
2015-Sep-01 03:30N 41°00' W 072°39'0 0.0
2015-Sep-01 02:33N 41°00' W 072°39'0 0.0
2015-Sep-01 01:33N 41°00' W 072°39'0 0.0
2015-Sep-01 00:33N 41°00' W 072°39'0 0.0
2015-Aug-31 23:33N 40°60' W 072°39'6 5.5
2015-Aug-31 22:33N 41°01' W 072°46'8 8.2
2015-Aug-31 21:33N 41°01' W 072°57'20 8.8
2015-Aug-31 19:17N 41°00' W 073°23'28 7.1
2015-Aug-31 15:19N 40°47' W 073°56'6 7.9
2015-Aug-31 14:33N 40°42' W 074°00'3 3.3
2015-Aug-31 13:32N 40°39' W 074°03'0 0.0
2015-Aug-31 12:32N 40°39' W 074°03'0 0.1
2015-Aug-31 11:33N 40°39' W 074°03'7 7.0
2015-Aug-31 10:29N 40°32' W 074°01'53 7.4
2015-Aug-31 03:15N 39°38' W 074°03'60 7.8
2015-Aug-30 19:28N 38°50' W 074°50'7 7.5
2015-Aug-30 18:33N 38°48' W 074°58'8 8.4
2015-Aug-30 17:33N 38°55' W 075°05'11 9.0
2015-Aug-30 16:23N 39°04' W 075°11'7 7.7
2015-Aug-30 15:32N 39°10' W 075°15'6 6.3
2015-Aug-30 14:32N 39°15' W 075°20'5 5.3
2015-Aug-30 13:33N 39°19' W 075°24'6 5.9
2015-Aug-30 12:33N 39°23' W 075°29'7 7.1
2015-Aug-30 11:33N 39°30' W 075°34'9 8.6
2015-Aug-30 10:33N 39°38' W 075°34'9 9.3
2015-Aug-30 09:33N 39°46' W 075°28'9 9.0
2015-Aug-30 08:33N 39°51' W 075°18'5 5.4
2015-Aug-30 07:33N 39°54' W 075°12'0 0.0
2015-Aug-30 06:32N 39°54' W 075°12'0 0.0
2015-Aug-30 05:32N 39°54' W 075°12'0 0.0
2015-Aug-30 04:32N 39°54' W 075°12'0 0.0
2015-Aug-30 03:32N 39°54' W 075°12'0 0.0
2015-Aug-30 02:32N 39°54' W 075°12'0 0.0
2015-Aug-30 01:32N 39°54' W 075°12'0 0.0
2015-Aug-30 00:32N 39°54' W 075°12'0 0.0
2015-Aug-29 23:32N 39°54' W 075°12'0 0.0
2015-Aug-29 22:29N 39°54' W 075°12'0 0.0
2015-Aug-29 21:32N 39°54' W 075°12'0 0.0
2015-Aug-29 20:32N 39°54' W 075°12'0 0.0
2015-Aug-29 19:32N 39°54' W 075°12'0 0.0
2015-Aug-29 18:29N 39°54' W 075°12'0 0.0
2015-Aug-29 17:32N 39°54' W 075°12'0 0.0
2015-Aug-29 16:32N 39°54' W 075°12'0 0.0
2015-Aug-29 15:32N 39°54' W 075°12'0 0.0
2015-Aug-29 14:33N 39°54' W 075°12'1 1.1
2015-Aug-29 13:33N 39°53' W 075°11'1 1.1
2015-Aug-29 12:33N 39°54' W 075°12'0 0.0
2015-Aug-29 11:33N 39°54' W 075°12'0 0.0
2015-Aug-29 10:33N 39°54' W 075°12'0 0.0
2015-Aug-29 09:33N 39°54' W 075°12'0 0.0
2015-Aug-29 08:33N 39°54' W 075°12'0 0.0
2015-Aug-29 07:33N 39°54' W 075°12'2 2.5
2015-Aug-29 06:33N 39°52' W 075°14'9 9.3
2015-Aug-29 05:33N 39°48' W 075°25'10 9.8
2015-Aug-29 04:33N 39°40' W 075°32'9 9.3
2015-Aug-29 03:34N 39°31' W 075°33'1010.1
2015-Aug-29 02:33N 39°22' W 075°27'1111.2
2015-Aug-29 01:33N 39°13' W 075°18'2210.8
2015-Aug-28 23:32N 38°54' W 075°05'9 9.2
2015-Aug-28 22:33N 38°49' W 074°55'59 9.8
2015-Aug-28 16:33N 39°33' W 074°06'10 9.6
2015-Aug-28 15:33N 39°42' W 074°01'54 8.9
2015-Aug-28 09:33N 40°36' W 074°03'4 3.8
2015-Aug-28 08:31N 40°40' W 074°02'6 4.9
2015-Aug-28 07:16N 40°39' W 074°10'0 0.0
2015-Aug-28 06:16N 40°39' W 074°10'3 0.4
2015-Aug-27 23:23N 40°39' W 074°07'0 0.0
2015-Aug-27 22:32N 40°39' W 074°07'4 3.6
2015-Aug-27 21:32N 40°40' W 074°02'0 0.0
2015-Aug-27 20:32N 40°40' W 074°02'0 0.0
2015-Aug-27 19:32N 40°40' W 074°02'0 0.0
2015-Aug-27 18:32N 40°40' W 074°02'0 0.1
2015-Aug-27 17:33N 40°40' W 074°02'11 8.8
2015-Aug-27 16:20N 40°48' W 073°53'26 9.4
2015-Aug-27 13:33N 41°01' W 073°23'2110.1
2015-Aug-27 11:28N 41°10' W 072°58'8 8.0
2015-Aug-27 10:32N 41°17' W 072°55'0 0.1
2015-Aug-27 09:12N 41°17' W 072°54'0 0.0
2015-Aug-27 08:33N 41°17' W 072°54'0 0.0
2015-Aug-27 07:33N 41°17' W 072°54'0 0.0
2015-Aug-27 06:30N 41°17' W 072°54'0 0.0
2015-Aug-27 05:30N 41°17' W 072°54'0 0.0
2015-Aug-27 04:21N 41°17' W 072°54'0 0.0
2015-Aug-27 02:23N 41°17' W 072°54'0 0.0
2015-Aug-27 00:11N 41°17' W 072°54'0 0.0
2015-Aug-26 22:17N 41°17' W 072°54'0 0.0
2015-Aug-26 19:20N 41°17' W 072°54'1 0.6
2015-Aug-26 18:23N 41°17' W 072°55'22 7.2
2015-Aug-26 15:23N 41°03' W 073°16'7 8.2
2015-Aug-26 14:33N 41°00' W 073°25'28 7.0
2015-Aug-26 10:31N 40°46' W 073°57'5 4.9
2015-Aug-26 09:33N 40°42' W 074°01'3 2.9
2015-Aug-26 08:33N 40°45' W 074°01'5 4.9
2015-Aug-26 07:33N 40°40' W 074°03'44 6.7
2015-Aug-26 01:04N 39°57' W 073°57'5 7.6
2015-Aug-26 00:26N 39°52' W 073°57'7 7.5
2015-Aug-25 23:33N 39°45' W 073°58'8 7.7
2015-Aug-25 22:31N 39°38' W 074°03'65 7.3
2015-Aug-25 13:33N 38°48' W 074°57'8 7.5
2015-Aug-25 12:33N 38°53' W 075°04'11 8.3
2015-Aug-25 11:12N 39°04' W 075°10'7 7.4
2015-Aug-25 10:16N 39°09' W 075°15'5 6.6
2015-Aug-25 09:33N 39°14' W 075°18'6 6.5
2015-Aug-25 08:33N 39°18' W 075°23'7 7.0
2015-Aug-25 07:33N 39°24' W 075°29'  
Track history (hours):
 
Tides and Currents Weather Stations Pressure Air Temp Water Temp Dewpoint Dewpoint Depression Visibility Wind Speed Wind Dir Waves Ship Positions

Irish Sea

Owner: Kirby Offshore Marine, LLC, Staten Island, NY. More information available from US FCC via Universal Licensing System and Coast Guard Vessel Documentation Center.

Last reported at 2015-Sep-04 07:28 UTC. Time now 2015-Sep-04 07:51 UTC.
Position N 40°40' W 072°57'.

Length 156 m; draft 6.8 m.

Type: Ship (hazmat cat B). MMSI: 366910920.

Date/timePositionNaut miles runAvg speedWind from/ knotsBaromVisibWave heightAir tempDewpointWater temp
2015-Sep-04 07:28N 40°40' W 072°57'7 7.8
2015-Sep-04 06:33N 40°37' W 073°06'8 7.6
2015-Sep-04 05:33N 40°34' W 073°15'8 7.7
2015-Sep-04 04:33N 40°33' W 073°25'8 7.8
2015-Sep-04 03:33N 40°32' W 073°35'8 7.6
2015-Sep-04 02:33N 40°30' W 073°45'8 7.6
2015-Sep-04 01:33N 40°27' W 073°54'6 5.8
2015-Sep-04 00:33N 40°29' W 074°02'12 0.4
2015-Sep-02 15:33N 40°37' W 074°12'2 1.9
2015-Sep-02 14:25N 40°38' W 074°10'0 0.0
2015-Sep-02 13:31N 40°38' W 074°10'2 2.4
2015-Sep-02 12:30N 40°37' W 074°12'1 0.5
2015-Sep-02 11:29N 40°36' W 074°12'0 0.0
2015-Sep-02 04:29N 40°36' W 074°12'0 0.0
2015-Sep-02 03:27N 40°36' W 074°12'0 0.0
2015-Sep-02 02:33N 40°36' W 074°12'4 4.3
2015-Sep-02 01:33N 40°39' W 074°07'8 7.6
2015-Sep-02 00:33N 40°42' W 073°59'7 5.1
2015-Sep-01 23:10N 40°48' W 073°53'25 8.1
2015-Sep-01 20:06N 41°00' W 073°24'16 8.9
2015-Sep-01 18:17N 41°01' W 073°03'7 9.2
2015-Sep-01 17:33N 41°01' W 072°54'9 9.5
2015-Sep-01 16:34N 41°01' W 072°42'2 2.2
2015-Sep-01 15:34N 41°00' W 072°39'0 0.0
2015-Sep-01 14:31N 41°00' W 072°39'0 0.0
2015-Sep-01 13:31N 41°00' W 072°39'0 0.0
2015-Sep-01 12:31N 41°00' W 072°39'0 0.0
2015-Sep-01 11:31N 41°00' W 072°39'0 0.0
2015-Sep-01 10:34N 41°00' W 072°39'0 0.0
2015-Sep-01 09:33N 41°00' W 072°39'0 0.0
2015-Sep-01 08:33N 41°00' W 072°39'0 0.0
2015-Sep-01 07:33N 41°00' W 072°39'0 0.0
2015-Sep-01 06:33N 41°00' W 072°39'0 0.0
2015-Sep-01 05:33N 41°00' W 072°39'0 0.0
2015-Sep-01 04:33N 41°00' W 072°39'0 0.0
2015-Sep-01 03:30N 41°00' W 072°39'0 0.0
2015-Sep-01 02:33N 41°00' W 072°39'0 0.0
2015-Sep-01 01:33N 41°00' W 072°39'0 0.0
2015-Sep-01 00:33N 41°00' W 072°39'0 0.0
2015-Aug-31 23:33N 40°60' W 072°39'6 5.5
2015-Aug-31 22:33N 41°01' W 072°46'8 8.2
2015-Aug-31 21:33N 41°01' W 072°57'20 8.8
2015-Aug-31 19:17N 41°00' W 073°23'28 7.1
2015-Aug-31 15:19N 40°47' W 073°56'6 7.9
2015-Aug-31 14:33N 40°42' W 074°00'3 3.3
2015-Aug-31 13:32N 40°39' W 074°03'0 0.0
2015-Aug-31 12:32N 40°39' W 074°03'0 0.1
2015-Aug-31 11:33N 40°39' W 074°03'7 7.0
2015-Aug-31 10:29N 40°32' W 074°01'53 7.4
2015-Aug-31 03:15N 39°38' W 074°03'60 7.8
2015-Aug-30 19:28N 38°50' W 074°50'7 7.5
2015-Aug-30 18:33N 38°48' W 074°58'8 8.4
2015-Aug-30 17:33N 38°55' W 075°05'11 9.0
2015-Aug-30 16:23N 39°04' W 075°11'7 7.7
2015-Aug-30 15:32N 39°10' W 075°15'6 6.3
2015-Aug-30 14:32N 39°15' W 075°20'5 5.3
2015-Aug-30 13:33N 39°19' W 075°24'6 5.9
2015-Aug-30 12:33N 39°23' W 075°29'7 7.1
2015-Aug-30 11:33N 39°30' W 075°34'9 8.6
2015-Aug-30 10:33N 39°38' W 075°34'9 9.3
2015-Aug-30 09:33N 39°46' W 075°28'9 9.0
2015-Aug-30 08:33N 39°51' W 075°18'5 5.4
2015-Aug-30 07:33N 39°54' W 075°12'0 0.0
2015-Aug-30 06:32N 39°54' W 075°12'0 0.0
2015-Aug-30 05:32N 39°54' W 075°12'0 0.0
2015-Aug-30 04:32N 39°54' W 075°12'0 0.0
2015-Aug-30 03:32N 39°54' W 075°12'0 0.0
2015-Aug-30 02:32N 39°54' W 075°12'0 0.0
2015-Aug-30 01:32N 39°54' W 075°12'0 0.0
2015-Aug-30 00:32N 39°54' W 075°12'0 0.0
2015-Aug-29 23:32N 39°54' W 075°12'0 0.0
2015-Aug-29 22:29N 39°54' W 075°12'0 0.0
2015-Aug-29 21:32N 39°54' W 075°12'0 0.0
2015-Aug-29 20:32N 39°54' W 075°12'0 0.0
2015-Aug-29 19:32N 39°54' W 075°12'0 0.0
2015-Aug-29 18:29N 39°54' W 075°12'0 0.0
2015-Aug-29 17:32N 39°54' W 075°12'0 0.0
2015-Aug-29 16:32N 39°54' W 075°12'0 0.0
2015-Aug-29 15:32N 39°54' W 075°12'0 0.0
2015-Aug-29 14:33N 39°54' W 075°12'1 1.1
2015-Aug-29 13:33N 39°53' W 075°11'1 1.1
2015-Aug-29 12:33N 39°54' W 075°12'0 0.0
2015-Aug-29 11:33N 39°54' W 075°12'0 0.0
2015-Aug-29 10:33N 39°54' W 075°12'0 0.0
2015-Aug-29 09:33N 39°54' W 075°12'0 0.0
2015-Aug-29 08:33N 39°54' W 075°12'0 0.0
2015-Aug-29 07:33N 39°54' W 075°12'2 2.5
2015-Aug-29 06:33N 39°52' W 075°14'9 9.3
2015-Aug-29 05:33N 39°48' W 075°25'10 9.8
2015-Aug-29 04:33N 39°40' W 075°32'9 9.3
2015-Aug-29 03:34N 39°31' W 075°33'1010.1
2015-Aug-29 02:33N 39°22' W 075°27'1111.2
2015-Aug-29 01:33N 39°13' W 075°18'2210.8
2015-Aug-28 23:32N 38°54' W 075°05'9 9.2
2015-Aug-28 22:33N 38°49' W 074°55'59 9.8
2015-Aug-28 16:33N 39°33' W 074°06'10 9.6
2015-Aug-28 15:33N 39°42' W 074°01'54 8.9
2015-Aug-28 09:33N 40°36' W 074°03'4 3.8
2015-Aug-28 08:31N 40°40' W 074°02'6 4.9
2015-Aug-28 07:16N 40°39' W 074°10'0 0.0
2015-Aug-28 06:16N 40°39' W 074°10'3 0.4
2015-Aug-27 23:23N 40°39' W 074°07'0 0.0
2015-Aug-27 22:32N 40°39' W 074°07'4 3.6
2015-Aug-27 21:32N 40°40' W 074°02'0 0.0
2015-Aug-27 20:32N 40°40' W 074°02'0 0.0
2015-Aug-27 19:32N 40°40' W 074°02'0 0.0
2015-Aug-27 18:32N 40°40' W 074°02'0 0.1
2015-Aug-27 17:33N 40°40' W 074°02'11 8.8
2015-Aug-27 16:20N 40°48' W 073°53'26 9.4
2015-Aug-27 13:33N 41°01' W 073°23'2110.1
2015-Aug-27 11:28N 41°10' W 072°58'8 8.0
2015-Aug-27 10:32N 41°17' W 072°55'0 0.1
2015-Aug-27 09:12N 41°17' W 072°54'0 0.0
2015-Aug-27 08:33N 41°17' W 072°54'0 0.0
2015-Aug-27 07:33N 41°17' W 072°54'0 0.0
2015-Aug-27 06:30N 41°17' W 072°54'0 0.0
2015-Aug-27 05:30N 41°17' W 072°54'0 0.0
2015-Aug-27 04:21N 41°17' W 072°54'0 0.0
2015-Aug-27 02:23N 41°17' W 072°54'0 0.0
2015-Aug-27 00:11N 41°17' W 072°54'0 0.0
2015-Aug-26 22:17N 41°17' W 072°54'0 0.0
2015-Aug-26 19:20N 41°17' W 072°54'1 0.6
2015-Aug-26 18:23N 41°17' W 072°55'22 7.2
2015-Aug-26 15:23N 41°03' W 073°16'7 8.2
2015-Aug-26 14:33N 41°00' W 073°25'28 7.0
2015-Aug-26 10:31N 40°46' W 073°57'5 4.9
2015-Aug-26 09:33N 40°42' W 074°01'3 2.9
2015-Aug-26 08:33N 40°45' W 074°01'5 4.9
2015-Aug-26 07:33N 40°40' W 074°03'44 6.7
2015-Aug-26 01:04N 39°57' W 073°57'5 7.6
2015-Aug-26 00:26N 39°52' W 073°57'7 7.5
2015-Aug-25 23:33N 39°45' W 073°58'8 7.7
2015-Aug-25 22:31N 39°38' W 074°03'65 7.3
2015-Aug-25 13:33N 38°48' W 074°57'8 7.5
2015-Aug-25 12:33N 38°53' W 075°04'11 8.3
2015-Aug-25 11:12N 39°04' W 075°10'7 7.4
2015-Aug-25 10:16N 39°09' W 075°15'5 6.6
2015-Aug-25 09:33N 39°14' W 075°18'6 6.5
2015-Aug-25 08:33N 39°18' W 075°23'7 7.0
2015-Aug-25 07:33N 39°24' W 075°29'  

Dump ship's entire track history